sensor_id;sensor_type;location;lat;lon;timestamp;temperature;humidity
8939;DHT22;4504;48.810;9.172;2023-03-26T00:01:39;9.30;99.90
8939;DHT22;4504;48.810;9.172;2023-03-26T00:04:11;9.40;99.90
8939;DHT22;4504;48.810;9.172;2023-03-26T00:06:38;9.30;99.90
8939;DHT22;4504;48.810;9.172;2023-03-26T00:09:09;9.30;99.90
8939;DHT22;4504;48.810;9.172;2023-03-26T00:11:37;9.30;99.90
8939;DHT22;4504;48.810;9.172;2023-03-26T00:14:04;9.30;99.90
8939;DHT22;4504;48.810;9.172;2023-03-26T00:16:33;9.30;99.90
8939;DHT22;4504;48.810;9.172;2023-03-26T00:19:00;9.30;99.90
8939;DHT22;4504;48.810;9.172;2023-03-26T00:21:29;9.20;99.90
8939;DHT22;4504;48.810;9.172;2023-03-26T00:23:58;9.20;99.90
8939;DHT22;4504;48.810;9.172;2023-03-26T00:26:25;9.20;99.90
8939;DHT22;4504;48.810;9.172;2023-03-26T00:28:54;9.20;99.90
8939;DHT22;4504;48.810;9.172;2023-03-26T00:31:21;9.20;99.90
8939;DHT22;4504;48.810;9.172;2023-03-26T00:33:50;9.20;99.90
8939;DHT22;4504;48.810;9.172;2023-03-26T00:36:19;9.20;99.90
8939;DHT22;4504;48.810;9.172;2023-03-26T00:38:47;9.20;99.90
8939;DHT22;4504;48.810;9.172;2023-03-26T00:41:16;9.20;99.90
8939;DHT22;4504;48.810;9.172;2023-03-26T00:43:48;9.20;99.90
8939;DHT22;4504;48.810;9.172;2023-03-26T00:46:16;9.20;99.90
8939;DHT22;4504;48.810;9.172;2023-03-26T00:48:43;9.30;99.90
8939;DHT22;4504;48.810;9.172;2023-03-26T00:51:13;9.10;99.90
8939;DHT22;4504;48.810;9.172;2023-03-26T00:53:41;9.20;99.90
8939;DHT22;4504;48.810;9.172;2023-03-26T00:56:08;9.20;99.90
8939;DHT22;4504;48.810;9.172;2023-03-26T00:58:36;9.20;99.90
8939;DHT22;4504;48.810;9.172;2023-03-26T01:01:06;9.10;99.90
8939;DHT22;4504;48.810;9.172;2023-03-26T01:03:35;9.10;99.90
8939;DHT22;4504;48.810;9.172;2023-03-26T01:06:04;9.20;99.90
8939;DHT22;4504;48.810;9.172;2023-03-26T01:08:37;9.20;99.90
8939;DHT22;4504;48.810;9.172;2023-03-26T01:11:07;9.20;99.90
8939;DHT22;4504;48.810;9.172;2023-03-26T01:13:42;9.20;99.90
8939;DHT22;4504;48.810;9.172;2023-03-26T01:16:19;9.10;99.90
8939;DHT22;4504;48.810;9.172;2023-03-26T01:18:47;9.10;99.90
8939;DHT22;4504;48.810;9.172;2023-03-26T01:21:20;9.10;99.90
8939;DHT22;4504;48.810;9.172;2023-03-26T01:23:56;9.20;99.90
8939;DHT22;4504;48.810;9.172;2023-03-26T01:26:34;9.10;99.90
8939;DHT22;4504;48.810;9.172;2023-03-26T01:29:03;9.10;99.90
8939;DHT22;4504;48.810;9.172;2023-03-26T01:31:38;9.10;99.90
8939;DHT22;4504;48.810;9.172;2023-03-26T01:34:14;9.10;99.90
8939;DHT22;4504;48.810;9.172;2023-03-26T01:36:47;9.10;99.90
8939;DHT22;4504;48.810;9.172;2023-03-26T01:39:23;9.10;99.90
8939;DHT22;4504;48.810;9.172;2023-03-26T01:41:56;9.20;99.90
8939;DHT22;4504;48.810;9.172;2023-03-26T01:44:29;9.20;99.90
8939;DHT22;4504;48.810;9.172;2023-03-26T01:46:58;9.20;99.90
8939;DHT22;4504;48.810;9.172;2023-03-26T01:49:26;9.20;99.90
8939;DHT22;4504;48.810;9.172;2023-03-26T01:51:55;9.00;99.90
8939;DHT22;4504;48.810;9.172;2023-03-26T01:54:26;9.20;99.90
8939;DHT22;4504;48.810;9.172;2023-03-26T01:57:02;9.40;99.90
8939;DHT22;4504;48.810;9.172;2023-03-26T01:59:49;9.30;99.90
8939;DHT22;4504;48.810;9.172;2023-03-26T02:02:23;9.20;99.90
8939;DHT22;4504;48.810;9.172;2023-03-26T02:04:56;9.20;99.90
8939;DHT22;4504;48.810;9.172;2023-03-26T02:07:27;9.20;99.90
8939;DHT22;4504;48.810;9.172;2023-03-26T02:10:06;9.20;99.90
8939;DHT22;4504;48.810;9.172;2023-03-26T02:12:39;9.20;99.90
8939;DHT22;4504;48.810;9.172;2023-03-26T02:15:07;9.20;99.90
8939;DHT22;4504;48.810;9.172;2023-03-26T02:17:34;9.20;99.90
8939;DHT22;4504;48.810;9.172;2023-03-26T02:20:06;9.20;99.90
8939;DHT22;4504;48.810;9.172;2023-03-26T02:22:34;9.10;99.90
8939;DHT22;4504;48.810;9.172;2023-03-26T02:25:09;9.20;99.90
8939;DHT22;4504;48.810;9.172;2023-03-26T02:27:36;9.10;99.90
8939;DHT22;4504;48.810;9.172;2023-03-26T02:30:07;9.10;99.90
8939;DHT22;4504;48.810;9.172;2023-03-26T02:32:35;9.10;99.90
8939;DHT22;4504;48.810;9.172;2023-03-26T02:35:04;9.10;99.90
8939;DHT22;4504;48.810;9.172;2023-03-26T02:37:33;9.10;99.90
8939;DHT22;4504;48.810;9.172;2023-03-26T02:40:09;9.00;99.90
8939;DHT22;4504;48.810;9.172;2023-03-26T02:42:38;9.10;99.90
8939;DHT22;4504;48.810;9.172;2023-03-26T02:45:06;9.10;99.90
8939;DHT22;4504;48.810;9.172;2023-03-26T02:47:53;9.10;99.90
8939;DHT22;4504;48.810;9.172;2023-03-26T02:50:44;9.00;99.90
8939;DHT22;4504;48.810;9.172;2023-03-26T02:53:33;9.00;99.90
8939;DHT22;4504;48.810;9.172;2023-03-26T02:56:31;9.00;99.90
8939;DHT22;4504;48.810;9.172;2023-03-26T02:59:15;9.00;99.90
8939;DHT22;4504;48.810;9.172;2023-03-26T03:01:45;8.90;99.90
8939;DHT22;4504;48.810;9.172;2023-03-26T03:04:15;8.90;99.90
8939;DHT22;4504;48.810;9.172;2023-03-26T03:06:43;8.90;99.90
8939;DHT22;4504;48.810;9.172;2023-03-26T03:09:11;8.80;99.90
8939;DHT22;4504;48.810;9.172;2023-03-26T03:11:40;8.90;99.90
8939;DHT22;4504;48.810;9.172;2023-03-26T03:14:07;8.90;99.90
8939;DHT22;4504;48.810;9.172;2023-03-26T03:16:34;8.90;99.90
8939;DHT22;4504;48.810;9.172;2023-03-26T03:19:07;8.90;99.90
8939;DHT22;4504;48.810;9.172;2023-03-26T03:21:38;8.90;99.90
8939;DHT22;4504;48.810;9.172;2023-03-26T03:24:07;8.90;99.90
8939;DHT22;4504;48.810;9.172;2023-03-26T03:26:43;8.90;99.90
8939;DHT22;4504;48.810;9.172;2023-03-26T03:29:30;8.90;99.90
8939;DHT22;4504;48.810;9.172;2023-03-26T03:32:09;9.00;99.90
8939;DHT22;4504;48.810;9.172;2023-03-26T03:34:43;8.90;99.90
8939;DHT22;4504;48.810;9.172;2023-03-26T03:37:10;9.00;99.90
8939;DHT22;4504;48.810;9.172;2023-03-26T03:39:46;9.00;99.90
8939;DHT22;4504;48.810;9.172;2023-03-26T03:42:18;9.00;99.90
8939;DHT22;4504;48.810;9.172;2023-03-26T03:44:47;9.00;99.90
8939;DHT22;4504;48.810;9.172;2023-03-26T03:47:34;9.20;99.90
8939;DHT22;4504;48.810;9.172;2023-03-26T03:50:02;9.10;99.90
8939;DHT22;4504;48.810;9.172;2023-03-26T03:52:29;9.10;99.90
8939;DHT22;4504;48.810;9.172;2023-03-26T03:54:56;9.10;99.90
8939;DHT22;4504;48.810;9.172;2023-03-26T03:57:46;9.10;99.90
8939;DHT22;4504;48.810;9.172;2023-03-26T04:00:19;9.10;99.90
8939;DHT22;4504;48.810;9.172;2023-03-26T04:02:59;9.10;99.90
8939;DHT22;4504;48.810;9.172;2023-03-26T04:05:32;9.10;99.90
8939;DHT22;4504;48.810;9.172;2023-03-26T04:07:59;9.10;99.90
8939;DHT22;4504;48.810;9.172;2023-03-26T04:10:26;9.10;99.90
8939;DHT22;4504;48.810;9.172;2023-03-26T04:13:15;9.10;99.90
8939;DHT22;4504;48.810;9.172;2023-03-26T04:15:54;9.10;99.90
8939;DHT22;4504;48.810;9.172;2023-03-26T04:18:22;9.20;99.90
8939;DHT22;4504;48.810;9.172;2023-03-26T04:20:51;9.20;99.90
8939;DHT22;4504;48.810;9.172;2023-03-26T04:23:24;9.20;99.90
8939;DHT22;4504;48.810;9.172;2023-03-26T04:26:01;9.20;99.90
8939;DHT22;4504;48.810;9.172;2023-03-26T04:28:50;9.30;99.90
8939;DHT22;4504;48.810;9.172;2023-03-26T04:31:24;9.40;99.90
8939;DHT22;4504;48.810;9.172;2023-03-26T04:33:55;9.30;99.90
8939;DHT22;4504;48.810;9.172;2023-03-26T04:36:27;9.30;99.90
8939;DHT22;4504;48.810;9.172;2023-03-26T04:38:56;9.30;99.90
8939;DHT22;4504;48.810;9.172;2023-03-26T04:41:47;9.20;99.90
8939;DHT22;4504;48.810;9.172;2023-03-26T04:44:19;9.20;99.90
8939;DHT22;4504;48.810;9.172;2023-03-26T04:47:08;9.40;99.90
8939;DHT22;4504;48.810;9.172;2023-03-26T04:49:43;9.30;99.90
8939;DHT22;4504;48.810;9.172;2023-03-26T04:52:14;9.30;99.90
8939;DHT22;4504;48.810;9.172;2023-03-26T04:54:56;9.30;99.90
8939;DHT22;4504;48.810;9.172;2023-03-26T04:57:27;9.30;99.90
8939;DHT22;4504;48.810;9.172;2023-03-26T05:00:04;9.30;99.90
8939;DHT22;4504;48.810;9.172;2023-03-26T05:02:40;9.30;99.90
8939;DHT22;4504;48.810;9.172;2023-03-26T05:05:08;9.30;99.90
8939;DHT22;4504;48.810;9.172;2023-03-26T05:07:36;9.40;99.90
8939;DHT22;4504;48.810;9.172;2023-03-26T05:10:04;9.40;99.90
8939;DHT22;4504;48.810;9.172;2023-03-26T05:12:38;9.40;99.90
8939;DHT22;4504;48.810;9.172;2023-03-26T05:15:17;9.40;99.90
8939;DHT22;4504;48.810;9.172;2023-03-26T05:17:56;9.40;99.90
8939;DHT22;4504;48.810;9.172;2023-03-26T05:20:42;9.40;99.90
8939;DHT22;4504;48.810;9.172;2023-03-26T05:23:09;9.50;99.90
8939;DHT22;4504;48.810;9.172;2023-03-26T05:25:40;9.50;99.90
8939;DHT22;4504;48.810;9.172;2023-03-26T05:28:14;9.60;99.90
8939;DHT22;4504;48.810;9.172;2023-03-26T05:30:52;9.60;99.90
8939;DHT22;4504;48.810;9.172;2023-03-26T05:33:21;9.50;99.90
8939;DHT22;4504;48.810;9.172;2023-03-26T05:36:01;9.60;99.90
8939;DHT22;4504;48.810;9.172;2023-03-26T05:38:31;9.50;99.90
8939;DHT22;4504;48.810;9.172;2023-03-26T05:41:00;9.60;99.90
8939;DHT22;4504;48.810;9.172;2023-03-26T05:43:28;9.60;99.90
8939;DHT22;4504;48.810;9.172;2023-03-26T05:46:10;9.60;99.90
8939;DHT22;4504;48.810;9.172;2023-03-26T05:48:37;9.60;99.90
8939;DHT22;4504;48.810;9.172;2023-03-26T05:51:05;9.50;99.90
8939;DHT22;4504;48.810;9.172;2023-03-26T05:53:33;9.50;99.90
8939;DHT22;4504;48.810;9.172;2023-03-26T05:56:18;9.50;99.90
8939;DHT22;4504;48.810;9.172;2023-03-26T05:59:20;9.50;99.90
8939;DHT22;4504;48.810;9.172;2023-03-26T06:02:08;9.60;99.90
8939;DHT22;4504;48.810;9.172;2023-03-26T06:04:35;9.50;99.90
8939;DHT22;4504;48.810;9.172;2023-03-26T06:07:27;9.60;99.90
8939;DHT22;4504;48.810;9.172;2023-03-26T06:10:21;9.60;99.90
8939;DHT22;4504;48.810;9.172;2023-03-26T06:12:48;9.60;99.90
8939;DHT22;4504;48.810;9.172;2023-03-26T06:15:16;9.60;99.90
8939;DHT22;4504;48.810;9.172;2023-03-26T06:17:50;9.60;99.90
8939;DHT22;4504;48.810;9.172;2023-03-26T06:20:52;9.60;99.90
8939;DHT22;4504;48.810;9.172;2023-03-26T06:23:27;9.60;99.90
8939;DHT22;4504;48.810;9.172;2023-03-26T06:26:08;9.60;99.90
8939;DHT22;4504;48.810;9.172;2023-03-26T06:28:54;9.60;99.90
8939;DHT22;4504;48.810;9.172;2023-03-26T06:31:40;9.60;99.90
8939;DHT22;4504;48.810;9.172;2023-03-26T06:34:35;9.60;99.90
8939;DHT22;4504;48.810;9.172;2023-03-26T06:37:02;9.60;99.90
8939;DHT22;4504;48.810;9.172;2023-03-26T06:39:29;9.60;99.90
8939;DHT22;4504;48.810;9.172;2023-03-26T06:42:16;9.60;99.90
8939;DHT22;4504;48.810;9.172;2023-03-26T06:44:57;9.70;99.90
8939;DHT22;4504;48.810;9.172;2023-03-26T06:47:33;9.70;99.90
8939;DHT22;4504;48.810;9.172;2023-03-26T06:50:20;9.60;99.90
8939;DHT22;4504;48.810;9.172;2023-03-26T06:53:05;9.60;99.90
8939;DHT22;4504;48.810;9.172;2023-03-26T06:55:52;9.60;99.90
8939;DHT22;4504;48.810;9.172;2023-03-26T06:58:37;9.60;99.90
8939;DHT22;4504;48.810;9.172;2023-03-26T07:01:43;9.60;99.90
8939;DHT22;4504;48.810;9.172;2023-03-26T07:04:45;9.70;99.90
8939;DHT22;4504;48.810;9.172;2023-03-26T07:07:39;9.70;99.90
8939;DHT22;4504;48.810;9.172;2023-03-26T07:10:25;9.60;99.90
8939;DHT22;4504;48.810;9.172;2023-03-26T07:13:06;9.60;99.90
8939;DHT22;4504;48.810;9.172;2023-03-26T07:15:51;9.60;99.90
8939;DHT22;4504;48.810;9.172;2023-03-26T07:18:37;9.60;99.90
8939;DHT22;4504;48.810;9.172;2023-03-26T07:21:08;9.60;99.90
8939;DHT22;4504;48.810;9.172;2023-03-26T07:23:37;9.70;99.90
8939;DHT22;4504;48.810;9.172;2023-03-26T07:26:31;9.70;99.90
8939;DHT22;4504;48.810;9.172;2023-03-26T07:29:27;9.70;99.90
8939;DHT22;4504;48.810;9.172;2023-03-26T07:32:22;9.70;99.90
8939;DHT22;4504;48.810;9.172;2023-03-26T07:34:55;9.70;99.90
8939;DHT22;4504;48.810;9.172;2023-03-26T07:37:42;9.70;99.90
8939;DHT22;4504;48.810;9.172;2023-03-26T07:40:45;9.70;99.90
8939;DHT22;4504;48.810;9.172;2023-03-26T07:43:52;9.70;99.90
8939;DHT22;4504;48.810;9.172;2023-03-26T07:46:31;9.70;99.90
8939;DHT22;4504;48.810;9.172;2023-03-26T07:49:20;9.70;99.90
8939;DHT22;4504;48.810;9.172;2023-03-26T07:52:17;9.60;99.90
8939;DHT22;4504;48.810;9.172;2023-03-26T07:54:59;9.60;99.90
8939;DHT22;4504;48.810;9.172;2023-03-26T07:57:55;9.60;99.90
8939;DHT22;4504;48.810;9.172;2023-03-26T08:00:41;9.50;99.90
8939;DHT22;4504;48.810;9.172;2023-03-26T08:03:36;9.50;99.90
8939;DHT22;4504;48.810;9.172;2023-03-26T08:06:36;9.50;99.90
8939;DHT22;4504;48.810;9.172;2023-03-26T08:09:31;9.40;99.90
8939;DHT22;4504;48.810;9.172;2023-03-26T08:12:25;9.40;99.90
8939;DHT22;4504;48.810;9.172;2023-03-26T08:15:02;9.40;99.90
8939;DHT22;4504;48.810;9.172;2023-03-26T08:17:39;9.30;99.90
8939;DHT22;4504;48.810;9.172;2023-03-26T08:20:18;9.30;99.90
8939;DHT22;4504;48.810;9.172;2023-03-26T08:22:49;9.30;99.90
8939;DHT22;4504;48.810;9.172;2023-03-26T08:25:26;9.20;99.90
8939;DHT22;4504;48.810;9.172;2023-03-26T08:28:09;9.10;99.90
8939;DHT22;4504;48.810;9.172;2023-03-26T08:30:40;9.10;99.90
8939;DHT22;4504;48.810;9.172;2023-03-26T08:33:12;9.10;99.90
8939;DHT22;4504;48.810;9.172;2023-03-26T08:35:41;9.10;99.90
8939;DHT22;4504;48.810;9.172;2023-03-26T08:38:09;9.20;99.90
8939;DHT22;4504;48.810;9.172;2023-03-26T08:44:15;9.10;99.90
8939;DHT22;4504;48.810;9.172;2023-03-26T08:50:13;9.10;99.90
8939;DHT22;4504;48.810;9.172;2023-03-26T08:53:06;9.10;99.90
8939;DHT22;4504;48.810;9.172;2023-03-26T08:55:48;9.10;99.90
8939;DHT22;4504;48.810;9.172;2023-03-26T08:58:43;9.10;99.90
8939;DHT22;4504;48.810;9.172;2023-03-26T09:04:37;9.20;99.90
8939;DHT22;4504;48.810;9.172;2023-03-26T09:07:38;9.20;99.90
8939;DHT22;4504;48.810;9.172;2023-03-26T09:10:44;9.20;99.90
8939;DHT22;4504;48.810;9.172;2023-03-26T09:13:33;9.30;99.90
8939;DHT22;4504;48.810;9.172;2023-03-26T09:19:24;9.50;99.90
8939;DHT22;4504;48.810;9.172;2023-03-26T09:22:16;9.60;99.90
8939;DHT22;4504;48.810;9.172;2023-03-26T09:25:09;9.70;99.90
8939;DHT22;4504;48.810;9.172;2023-03-26T09:27:53;9.70;99.90
8939;DHT22;4504;48.810;9.172;2023-03-26T09:30:41;9.70;99.90
8939;DHT22;4504;48.810;9.172;2023-03-26T09:33:48;9.80;99.90
8939;DHT22;4504;48.810;9.172;2023-03-26T09:39:18;9.80;99.90
8939;DHT22;4504;48.810;9.172;2023-03-26T09:41:59;9.80;99.90
8939;DHT22;4504;48.810;9.172;2023-03-26T09:45:12;9.90;99.90
8939;DHT22;4504;48.810;9.172;2023-03-26T09:48:13;10.00;99.90
8939;DHT22;4504;48.810;9.172;2023-03-26T09:50:55;10.20;99.90
8939;DHT22;4504;48.810;9.172;2023-03-26T09:56:34;10.30;99.90
8939;DHT22;4504;48.810;9.172;2023-03-26T09:59:17;10.30;99.90
8939;DHT22;4504;48.810;9.172;2023-03-26T10:01:51;10.50;99.90
8939;DHT22;4504;48.810;9.172;2023-03-26T10:04:41;10.60;99.90
8939;DHT22;4504;48.810;9.172;2023-03-26T10:07:32;10.60;99.90
8939;DHT22;4504;48.810;9.172;2023-03-26T10:10:07;10.70;99.90
8939;DHT22;4504;48.810;9.172;2023-03-26T10:12:42;10.70;99.90
8939;DHT22;4504;48.810;9.172;2023-03-26T10:15:25;10.80;99.90
8939;DHT22;4504;48.810;9.172;2023-03-26T10:18:08;10.80;99.90
8939;DHT22;4504;48.810;9.172;2023-03-26T10:20:52;10.80;99.90
8939;DHT22;4504;48.810;9.172;2023-03-26T10:26:38;11.10;99.90
8939;DHT22;4504;48.810;9.172;2023-03-26T10:29:29;11.10;99.90
8939;DHT22;4504;48.810;9.172;2023-03-26T10:32:08;11.20;99.90
8939;DHT22;4504;48.810;9.172;2023-03-26T10:34:52;11.40;99.90
8939;DHT22;4504;48.810;9.172;2023-03-26T10:37:32;11.50;99.90
8939;DHT22;4504;48.810;9.172;2023-03-26T10:40:16;11.60;99.90
8939;DHT22;4504;48.810;9.172;2023-03-26T10:42:59;11.70;99.90
8939;DHT22;4504;48.810;9.172;2023-03-26T10:45:41;11.90;99.90
8939;DHT22;4504;48.810;9.172;2023-03-26T10:48:42;12.10;99.90
8939;DHT22;4504;48.810;9.172;2023-03-26T10:51:26;12.20;99.90
8939;DHT22;4504;48.810;9.172;2023-03-26T10:53:56;12.50;99.90
8939;DHT22;4504;48.810;9.172;2023-03-26T10:56:28;12.40;99.90
8939;DHT22;4504;48.810;9.172;2023-03-26T10:59:03;12.30;99.90
8939;DHT22;4504;48.810;9.172;2023-03-26T11:01:36;12.30;99.90
8939;DHT22;4504;48.810;9.172;2023-03-26T11:04:15;12.30;99.70
8939;DHT22;4504;48.810;9.172;2023-03-26T11:06:48;12.20;99.90
8939;DHT22;4504;48.810;9.172;2023-03-26T11:09:27;12.10;99.90
8939;DHT22;4504;48.810;9.172;2023-03-26T11:11:58;12.20;99.90
8939;DHT22;4504;48.810;9.172;2023-03-26T11:14:30;12.10;99.90
8939;DHT22;4504;48.810;9.172;2023-03-26T11:17:04;12.00;98.90
8939;DHT22;4504;48.810;9.172;2023-03-26T11:19:41;12.00;96.80
8939;DHT22;4504;48.810;9.172;2023-03-26T11:22:20;12.00;96.40
8939;DHT22;4504;48.810;9.172;2023-03-26T11:25:03;12.00;96.40
8939;DHT22;4504;48.810;9.172;2023-03-26T11:27:43;12.10;96.80
8939;DHT22;4504;48.810;9.172;2023-03-26T11:30:20;12.20;95.40
8939;DHT22;4504;48.810;9.172;2023-03-26T11:32:52;12.40;94.80
8939;DHT22;4504;48.810;9.172;2023-03-26T11:35:24;12.60;95.50
8939;DHT22;4504;48.810;9.172;2023-03-26T11:37:55;12.80;94.80
8939;DHT22;4504;48.810;9.172;2023-03-26T11:40:28;12.90;93.70
8939;DHT22;4504;48.810;9.172;2023-03-26T11:42:59;13.10;93.40
8939;DHT22;4504;48.810;9.172;2023-03-26T11:45:29;13.20;92.80
8939;DHT22;4504;48.810;9.172;2023-03-26T11:48:02;13.30;92.60
8939;DHT22;4504;48.810;9.172;2023-03-26T11:50:34;13.40;93.00
8939;DHT22;4504;48.810;9.172;2023-03-26T11:53:10;13.40;92.20
8939;DHT22;4504;48.810;9.172;2023-03-26T11:55:47;13.50;92.30
8939;DHT22;4504;48.810;9.172;2023-03-26T11:58:28;13.50;92.10
8939;DHT22;4504;48.810;9.172;2023-03-26T12:00:56;13.50;92.40
8939;DHT22;4504;48.810;9.172;2023-03-26T12:03:23;13.60;92.20
8939;DHT22;4504;48.810;9.172;2023-03-26T12:05:57;13.70;91.40
8939;DHT22;4504;48.810;9.172;2023-03-26T12:08:33;13.80;90.80
8939;DHT22;4504;48.810;9.172;2023-03-26T12:11:09;13.70;91.30
8939;DHT22;4504;48.810;9.172;2023-03-26T12:13:39;13.60;94.20
8939;DHT22;4504;48.810;9.172;2023-03-26T12:16:11;13.10;97.70
8939;DHT22;4504;48.810;9.172;2023-03-26T12:18:39;12.60;99.90
8939;DHT22;4504;48.810;9.172;2023-03-26T12:21:11;12.20;99.90
8939;DHT22;4504;48.810;9.172;2023-03-26T12:23:49;12.00;99.90
8939;DHT22;4504;48.810;9.172;2023-03-26T12:26:18;12.00;99.90
8939;DHT22;4504;48.810;9.172;2023-03-26T12:28:46;12.20;99.90
8939;DHT22;4504;48.810;9.172;2023-03-26T12:31:14;12.30;99.90
8939;DHT22;4504;48.810;9.172;2023-03-26T12:33:43;12.30;99.90
8939;DHT22;4504;48.810;9.172;2023-03-26T12:36:21;12.30;99.90
8939;DHT22;4504;48.810;9.172;2023-03-26T12:38:51;12.30;99.90
8939;DHT22;4504;48.810;9.172;2023-03-26T12:41:19;12.30;99.90
8939;DHT22;4504;48.810;9.172;2023-03-26T12:43:48;12.10;99.90
8939;DHT22;4504;48.810;9.172;2023-03-26T12:46:22;12.10;99.90
8939;DHT22;4504;48.810;9.172;2023-03-26T12:48:50;11.90;99.90
8939;DHT22;4504;48.810;9.172;2023-03-26T12:51:29;11.80;99.90
8939;DHT22;4504;48.810;9.172;2023-03-26T12:54:18;11.70;99.90
8939;DHT22;4504;48.810;9.172;2023-03-26T12:57:00;11.80;99.90
8939;DHT22;4504;48.810;9.172;2023-03-26T12:59:40;12.00;99.90
8939;DHT22;4504;48.810;9.172;2023-03-26T13:02:29;12.20;99.90
8939;DHT22;4504;48.810;9.172;2023-03-26T13:05:15;12.30;99.90
8939;DHT22;4504;48.810;9.172;2023-03-26T13:08:04;12.50;99.90
8939;DHT22;4504;48.810;9.172;2023-03-26T13:10:44;12.60;99.90
8939;DHT22;4504;48.810;9.172;2023-03-26T13:13:54;12.70;99.90
8939;DHT22;4504;48.810;9.172;2023-03-26T13:16:26;12.70;99.90
8939;DHT22;4504;48.810;9.172;2023-03-26T13:19:00;12.80;99.90
8939;DHT22;4504;48.810;9.172;2023-03-26T13:21:38;12.80;99.90
8939;DHT22;4504;48.810;9.172;2023-03-26T13:24:19;12.70;99.90
8939;DHT22;4504;48.810;9.172;2023-03-26T13:27:04;12.80;99.90
8939;DHT22;4504;48.810;9.172;2023-03-26T13:29:39;12.80;99.90
8939;DHT22;4504;48.810;9.172;2023-03-26T13:32:17;12.80;99.90
8939;DHT22;4504;48.810;9.172;2023-03-26T13:34:58;12.80;99.50
8939;DHT22;4504;48.810;9.172;2023-03-26T13:37:30;12.80;99.90
8939;DHT22;4504;48.810;9.172;2023-03-26T13:40:15;12.90;99.90
8939;DHT22;4504;48.810;9.172;2023-03-26T13:42:48;12.90;98.80
8939;DHT22;4504;48.810;9.172;2023-03-26T13:45:29;13.00;99.30
8939;DHT22;4504;48.810;9.172;2023-03-26T13:48:01;13.00;98.40
8939;DHT22;4504;48.810;9.172;2023-03-26T13:50:34;13.10;98.50
8939;DHT22;4504;48.810;9.172;2023-03-26T13:53:05;13.00;98.00
8939;DHT22;4504;48.810;9.172;2023-03-26T13:55:39;13.00;98.10
8939;DHT22;4504;48.810;9.172;2023-03-26T13:58:12;13.00;97.80
8939;DHT22;4504;48.810;9.172;2023-03-26T14:00:50;12.90;97.80
8939;DHT22;4504;48.810;9.172;2023-03-26T14:03:24;12.90;98.20
8939;DHT22;4504;48.810;9.172;2023-03-26T14:05:55;12.80;98.00
8939;DHT22;4504;48.810;9.172;2023-03-26T14:08:27;12.70;98.20
8939;DHT22;4504;48.810;9.172;2023-03-26T14:11:03;12.70;98.20
8939;DHT22;4504;48.810;9.172;2023-03-26T14:13:40;12.70;98.30
8939;DHT22;4504;48.810;9.172;2023-03-26T14:16:12;12.70;98.40
8939;DHT22;4504;48.810;9.172;2023-03-26T14:18:47;12.70;98.30
8939;DHT22;4504;48.810;9.172;2023-03-26T14:21:32;12.70;97.60
8939;DHT22;4504;48.810;9.172;2023-03-26T14:24:26;12.80;97.50
8939;DHT22;4504;48.810;9.172;2023-03-26T14:27:06;12.80;96.90
8939;DHT22;4504;48.810;9.172;2023-03-26T14:29:49;12.80;96.80
8939;DHT22;4504;48.810;9.172;2023-03-26T14:32:29;12.70;97.60
8939;DHT22;4504;48.810;9.172;2023-03-26T14:35:05;12.60;96.20
8939;DHT22;4504;48.810;9.172;2023-03-26T14:38:04;12.40;96.60
8939;DHT22;4504;48.810;9.172;2023-03-26T14:40:47;12.00;98.20
8939;DHT22;4504;48.810;9.172;2023-03-26T14:46:18;11.40;99.90
8939;DHT22;4504;48.810;9.172;2023-03-26T14:48:57;11.00;99.90
8939;DHT22;4504;48.810;9.172;2023-03-26T14:51:48;10.80;99.90
8939;DHT22;4504;48.810;9.172;2023-03-26T14:54:23;10.50;99.90
8939;DHT22;4504;48.810;9.172;2023-03-26T15:00:12;10.20;99.90
8939;DHT22;4504;48.810;9.172;2023-03-26T15:09:20;10.10;99.90
8939;DHT22;4504;48.810;9.172;2023-03-26T15:11:56;10.10;99.90
8939;DHT22;4504;48.810;9.172;2023-03-26T15:14:44;10.00;99.90
8939;DHT22;4504;48.810;9.172;2023-03-26T15:21:09;9.80;99.90
8939;DHT22;4504;48.810;9.172;2023-03-26T15:24:19;9.70;99.90
8939;DHT22;4504;48.810;9.172;2023-03-26T15:30:21;9.60;99.90
8939;DHT22;4504;48.810;9.172;2023-03-26T15:33:21;9.50;99.90
8939;DHT22;4504;48.810;9.172;2023-03-26T15:39:40;9.30;99.90
8939;DHT22;4504;48.810;9.172;2023-03-26T15:42:18;9.20;99.90
8939;DHT22;4504;48.810;9.172;2023-03-26T15:44:56;9.20;99.90
8939;DHT22;4504;48.810;9.172;2023-03-26T15:47:52;9.20;99.90
8939;DHT22;4504;48.810;9.172;2023-03-26T15:50:36;9.20;99.90
8939;DHT22;4504;48.810;9.172;2023-03-26T15:53:14;9.20;99.90
8939;DHT22;4504;48.810;9.172;2023-03-26T15:56:06;9.10;99.90
8939;DHT22;4504;48.810;9.172;2023-03-26T15:58:50;9.00;99.90
8939;DHT22;4504;48.810;9.172;2023-03-26T16:01:29;9.00;99.90
8939;DHT22;4504;48.810;9.172;2023-03-26T16:04:10;9.10;99.90
8939;DHT22;4504;48.810;9.172;2023-03-26T16:06:47;9.10;99.90
8939;DHT22;4504;48.810;9.172;2023-03-26T16:09:34;9.10;99.90
8939;DHT22;4504;48.810;9.172;2023-03-26T16:12:28;9.10;99.90
8939;DHT22;4504;48.810;9.172;2023-03-26T16:15:26;9.00;99.90
8939;DHT22;4504;48.810;9.172;2023-03-26T16:18:15;9.10;99.90
8939;DHT22;4504;48.810;9.172;2023-03-26T16:20:49;9.10;99.90
8939;DHT22;4504;48.810;9.172;2023-03-26T16:23:23;9.20;99.90
8939;DHT22;4504;48.810;9.172;2023-03-26T16:25:55;9.20;99.90
8939;DHT22;4504;48.810;9.172;2023-03-26T16:28:33;9.20;99.90
8939;DHT22;4504;48.810;9.172;2023-03-26T16:34:20;9.20;99.90
8939;DHT22;4504;48.810;9.172;2023-03-26T16:36:51;9.10;99.90
8939;DHT22;4504;48.810;9.172;2023-03-26T16:39:22;9.10;99.90
8939;DHT22;4504;48.810;9.172;2023-03-26T16:41:56;9.10;99.90
8939;DHT22;4504;48.810;9.172;2023-03-26T16:44:33;9.10;99.90
8939;DHT22;4504;48.810;9.172;2023-03-26T16:47:08;9.10;99.90
8939;DHT22;4504;48.810;9.172;2023-03-26T16:52:38;9.00;99.90
8939;DHT22;4504;48.810;9.172;2023-03-26T16:55:17;9.00;99.90
8939;DHT22;4504;48.810;9.172;2023-03-26T16:57:53;9.10;99.90
8939;DHT22;4504;48.810;9.172;2023-03-26T17:00:42;9.20;99.90
8939;DHT22;4504;48.810;9.172;2023-03-26T17:03:26;9.10;99.90
8939;DHT22;4504;48.810;9.172;2023-03-26T17:06:04;9.10;99.90
8939;DHT22;4504;48.810;9.172;2023-03-26T17:08:39;9.20;99.90
8939;DHT22;4504;48.810;9.172;2023-03-26T17:11:21;9.10;99.90
8939;DHT22;4504;48.810;9.172;2023-03-26T17:13:57;9.10;99.90
8939;DHT22;4504;48.810;9.172;2023-03-26T17:16:33;9.10;99.90
8939;DHT22;4504;48.810;9.172;2023-03-26T17:19:07;9.20;99.90
8939;DHT22;4504;48.810;9.172;2023-03-26T17:21:44;9.10;99.90
8939;DHT22;4504;48.810;9.172;2023-03-26T17:24:22;9.10;99.90
8939;DHT22;4504;48.810;9.172;2023-03-26T17:27:20;9.00;99.90
8939;DHT22;4504;48.810;9.172;2023-03-26T17:30:00;9.00;99.90
8939;DHT22;4504;48.810;9.172;2023-03-26T17:32:56;8.90;99.90
8939;DHT22;4504;48.810;9.172;2023-03-26T17:35:48;8.80;99.90
8939;DHT22;4504;48.810;9.172;2023-03-26T17:38:55;8.80;99.90
8939;DHT22;4504;48.810;9.172;2023-03-26T17:41:50;8.80;99.90
8939;DHT22;4504;48.810;9.172;2023-03-26T17:44:41;8.80;99.90
8939;DHT22;4504;48.810;9.172;2023-03-26T17:47:18;8.80;99.90
8939;DHT22;4504;48.810;9.172;2023-03-26T17:49:49;8.80;99.90
8939;DHT22;4504;48.810;9.172;2023-03-26T17:52:21;8.80;99.90
8939;DHT22;4504;48.810;9.172;2023-03-26T17:54:53;8.80;99.90
8939;DHT22;4504;48.810;9.172;2023-03-26T17:57:24;8.80;99.90
8939;DHT22;4504;48.810;9.172;2023-03-26T17:59:58;8.80;99.90
8939;DHT22;4504;48.810;9.172;2023-03-26T18:02:33;8.90;99.90
8939;DHT22;4504;48.810;9.172;2023-03-26T18:05:07;8.90;99.90
8939;DHT22;4504;48.810;9.172;2023-03-26T18:08:22;8.90;99.90
8939;DHT22;4504;48.810;9.172;2023-03-26T18:11:16;8.90;99.90
8939;DHT22;4504;48.810;9.172;2023-03-26T18:16:56;9.00;99.90
8939;DHT22;4504;48.810;9.172;2023-03-26T18:19:25;9.00;99.90